Time;durP1;ratioP1;P1;durP2;ratioP2;P2;SDS_P1;SDS_P2;PMS_P1;PMS_P2;Temp;Humidity;BMP_temperature;BMP_pressure;BME280_temperature;BME280_humidity;BME280_pressure;Samples;Min_cycle;Max_cycle;Signal;HPM_P1;HPM_P2
2022/11/28 00:00:17;;;;;;;17.38;10.65;;;4.50;99.90;;;4.50;94.48;101581.16;4936494;29;20201;-68
2022/11/28 00:02:46;;;;;;;22.55;9.27;;;4.50;99.90;;;4.43;94.43;101574.66;4935482;29;20252;-70
2022/11/28 00:05:15;;;;;;;13.73;10.63;;;4.50;99.90;;;4.46;93.95;101582.41;4936575;29;20205;-69
2022/11/28 00:07:44;;;;;;;19.77;10.45;;;4.50;99.90;;;4.33;94.90;101580.06;4936707;29;20240;-69
2022/11/28 00:10:14;;;;;;;16.98;11.27;;;4.40;99.90;;;4.39;95.04;101573.28;4936969;29;20650;-68
2022/11/28 00:12:43;;;;;;;14.82;8.68;;;4.50;99.90;;;4.38;95.24;101566.22;4936516;29;20192;-70
2022/11/28 00:15:12;;;;;;;19.27;11.18;;;4.40;99.90;;;4.27;95.64;101569.91;4936304;29;20208;-69
2022/11/28 00:17:41;;;;;;;16.02;10.88;;;4.40;99.90;;;4.33;95.44;101569.34;4936416;29;20199;-69
2022/11/28 00:20:10;;;;;;;16.85;10.05;;;4.40;99.90;;;4.29;95.39;101561.72;4936452;29;20225;-69
2022/11/28 00:22:38;;;;;;;18.67;12.32;;;4.40;99.90;;;4.29;95.61;101564.41;4929850;29;20193;-68
2022/11/28 00:25:08;;;;;;;16.23;10.32;;;4.30;99.90;;;4.26;96.01;101562.03;4936617;29;20755;-70
2022/11/28 00:27:38;;;;;;;18.77;10.07;;;4.30;99.90;;;4.27;95.69;101561.03;4936671;29;20679;-69
2022/11/28 00:30:09;;;;;;;27.40;12.13;;;4.30;99.90;;;4.19;95.70;101559.09;4936570;29;20275;-70
2022/11/28 00:32:38;;;;;;;16.83;11.38;;;4.30;99.90;;;4.23;95.89;101560.47;4936315;29;20720;-68
2022/11/28 00:35:07;;;;;;;19.13;11.88;;;4.30;99.90;;;4.21;96.14;101548.22;4935857;29;20272;-69
2022/11/28 00:37:36;;;;;;;18.90;11.15;;;4.30;99.90;;;4.28;96.10;101543.97;4936216;29;20211;-69
2022/11/28 00:40:06;;;;;;;24.60;11.05;;;4.30;99.90;;;4.26;95.90;101545.97;4935936;29;20207;-69
2022/11/28 00:42:35;;;;;;;18.02;12.23;;;4.30;99.90;;;4.27;95.43;101547.63;4935807;29;20192;-68
2022/11/28 00:45:05;;;;;;;16.73;10.73;;;4.30;99.90;;;4.20;95.38;101552.75;4935684;29;20215;-68
2022/11/28 00:47:34;;;;;;;17.42;10.77;;;4.30;99.90;;;4.21;95.27;101549.03;4935833;29;20383;-69
2022/11/28 00:50:03;;;;;;;25.58;11.52;;;4.30;99.90;;;4.15;95.73;101554.16;4929302;29;20615;-69
2022/11/28 00:52:33;;;;;;;30.08;15.10;;;4.30;99.90;;;4.13;95.62;101548.09;4935393;29;20193;-69
2022/11/28 00:55:01;;;;;;;18.75;10.32;;;4.20;99.90;;;4.16;95.59;101545.13;4934797;29;20223;-68
2022/11/28 00:57:30;;;;;;;26.55;13.27;;;4.20;99.90;;;4.06;96.06;101544.31;4935790;29;20653;-68
2022/11/28 00:59:59;;;;;;;21.55;14.15;;;4.20;99.90;;;4.18;95.97;101544.00;4935900;29;20200;-68
2022/11/28 01:02:29;;;;;;;18.25;10.52;;;4.20;99.90;;;4.09;95.73;101539.50;4935597;29;20272;-69
2022/11/28 01:04:57;;;;;;;23.92;12.55;;;4.20;99.90;;;4.21;95.41;101529.47;4935905;29;20295;-69
2022/11/28 01:07:27;;;;;;;20.13;12.05;;;4.20;99.90;;;4.21;95.07;101526.78;4934954;29;20248;-69
2022/11/28 01:09:56;;;;;;;19.77;13.10;;;4.20;99.90;;;4.19;94.99;101523.41;4936046;29;20185;-68
2022/11/28 01:12:24;;;;;;;16.42;12.20;;;4.20;99.90;;;4.16;94.99;101521.03;4931750;29;20597;-69
2022/11/28 01:14:54;;;;;;;22.20;13.15;;;4.20;99.90;;;4.16;95.13;101518.34;4934263;29;20736;-69
2022/11/28 01:17:23;;;;;;;25.88;12.30;;;4.20;99.90;;;4.14;95.29;101517.63;4931592;29;20196;-69
2022/11/28 01:19:55;;;;;;;15.25;10.07;;;4.20;99.90;;;4.10;95.30;101509.06;4916876;29;20269;-69
2022/11/28 01:22:24;;;;;;;28.08;13.27;;;4.20;99.90;;;4.07;96.00;101511.16;4921730;29;20247;-69
2022/11/28 01:24:53;;;;;;;23.77;12.93;;;4.10;99.90;;;4.12;95.31;101506.22;4935425;29;20228;-69
2022/11/28 01:27:22;;;;;;;22.75;10.15;;;4.10;99.90;;;4.07;95.47;101505.81;4935898;29;20193;-69
2022/11/28 01:29:50;;;;;;;16.23;12.63;;;4.10;99.90;;;4.03;95.94;101501.72;4935859;29;20664;-68
2022/11/28 01:32:19;;;;;;;17.13;11.93;;;4.10;99.90;;;4.05;95.95;101494.41;4935861;29;20224;-68
2022/11/28 01:34:48;;;;;;;17.77;10.13;;;4.10;99.90;;;4.01;95.18;101501.91;4935593;29;20540;-69
2022/11/28 01:37:18;;;;;;;17.73;10.50;;;4.10;99.90;;;4.05;95.78;101499.78;4918143;29;20561;-69
2022/11/28 01:39:46;;;;;;;18.48;12.02;;;4.10;99.90;;;4.05;95.18;101491.72;4934367;29;20201;-69
2022/11/28 01:42:18;;;;;;;16.35;12.20;;;4.10;99.90;;;3.99;95.33;101489.63;4935640;29;20196;-69
2022/11/28 01:45:12;;;;;;;14.25;9.82;;;4.10;99.90;;;3.99;95.81;101486.94;4935482;29;20231;-69
2022/11/28 01:47:41;;;;;;;16.52;10.48;;;4.00;99.90;;;3.99;94.88;101484.28;4935458;29;20219;-70
2022/11/28 01:50:12;;;;;;;25.33;14.32;;;4.00;99.90;;;4.01;94.92;101477.78;4935564;29;20196;-69
2022/11/28 01:52:48;;;;;;;20.63;9.75;;;4.00;99.90;;;3.98;95.09;101482.56;4935256;29;20193;-68
2022/11/28 01:55:22;;;;;;;20.77;11.68;;;4.00;99.90;;;4.01;94.97;101476.94;4935060;29;20217;-68
2022/11/28 01:57:55;;;;;;;22.20;11.93;;;4.00;99.90;;;4.02;94.50;101471.41;4935354;29;20246;-68
2022/11/28 02:00:24;;;;;;;19.10;11.32;;;4.00;99.90;;;3.97;94.72;101473.69;4935314;29;20662;-69
2022/11/28 02:03:01;;;;;;;16.58;12.50;;;4.00;99.90;;;3.96;94.58;101468.50;4931065;29;20224;-69
2022/11/28 02:05:29;;;;;;;17.77;11.30;;;4.00;99.90;;;4.00;94.69;101467.22;4935266;29;20684;-69
2022/11/28 02:08:02;;;;;;;15.23;9.85;;;4.00;99.90;;;3.96;94.55;101463.16;4938692;29;20580;-69
2022/11/28 02:11:02;;;;;;;25.48;12.55;;;4.00;99.90;;;4.05;94.61;101457.75;4938503;29;20511;-68
2022/11/28 02:13:45;;;;;;;14.35;10.10;;;4.00;99.90;;;3.98;94.49;101462.00;4936236;29;20217;-68
2022/11/28 02:16:45;;;;;;;19.52;10.95;;;4.10;99.90;;;3.98;93.85;101450.44;4938879;29;20209;-68
2022/11/28 02:20:11;;;;;;;13.23;9.32;;;4.00;99.90;;;3.97;93.92;101454.94;4929121;29;20297;-69
2022/11/28 02:22:50;;;;;;;15.88;9.88;;;4.00;99.90;;;3.98;94.51;101448.59;4933953;29;20217;-69
2022/11/28 02:26:04;;;;;;;19.85;11.85;;;4.00;99.90;;;3.94;94.19;101440.03;4933017;29;20209;-69
2022/11/28 02:29:29;;;;;;;14.50;8.90;;;4.00;99.90;;;3.98;94.55;101429.00;4937019;29;20204;-68
2022/11/28 02:32:31;;;;;;;14.88;9.30;;;4.00;99.90;;;3.97;93.47;101432.72;4923905;29;20209;-70
2022/11/28 02:35:12;;;;;;;21.10;10.75;;;4.00;99.90;;;3.90;93.85;101437.78;4938284;29;20220;-69
2022/11/28 02:37:58;;;;;;;17.70;9.38;;;3.90;99.90;;;3.88;93.99;101429.06;4938351;29;20568;-69
2022/11/28 02:40:38;;;;;;;12.93;8.60;;;4.00;99.90;;;3.88;94.32;101426.38;4937094;29;20303;-69
2022/11/28 02:43:20;;;;;;;13.55;9.27;;;3.90;99.90;;;3.85;93.94;101435.56;4938381;29;20200;-68
2022/11/28 02:45:58;;;;;;;18.55;11.00;;;3.90;99.90;;;3.85;94.46;101424.84;4938052;29;20192;-68
2022/11/28 02:48:41;;;;;;;17.17;10.23;;;3.90;99.90;;;3.84;94.36;101430.34;4974394;23;20236;-79
2022/11/28 02:51:16;;;;;;;15.82;9.93;;;3.90;99.90;;;3.72;95.53;101434.19;4945258;29;20216;-78
2022/11/28 02:53:49;;;;;;;16.73;10.40;;;3.90;99.90;;;3.74;94.86;101429.50;4945540;29;20181;-77
2022/11/28 02:56:18;;;;;;;12.73;9.95;;;3.80;99.90;;;3.75;94.92;101429.38;4944830;29;20264;-77
2022/11/28 02:58:47;;;;;;;14.45;10.80;;;3.80;99.90;;;3.71;95.28;101417.28;4945233;29;20547;-77
2022/11/28 03:01:23;;;;;;;20.55;11.25;;;3.80;99.90;;;3.66;95.11;101416.88;4944587;29;20213;-77
2022/11/28 03:04:23;;;;;;;17.98;10.30;;;3.80;99.90;;;3.65;95.60;101417.84;4943448;29;20201;-76
2022/11/28 03:07:06;;;;;;;16.05;10.30;;;3.80;99.90;;;3.63;95.76;101417.13;4946585;29;20184;-78
2022/11/28 03:10:00;;;;;;;17.90;11.30;;;3.70;99.90;;;3.59;96.03;101405.03;4941104;29;20213;-77
2022/11/28 03:12:51;;;;;;;17.55;10.45;;;3.70;99.90;;;3.66;96.27;101406.16;4938849;29;20193;-77
2022/11/28 03:15:31;;;;;;;14.93;10.00;;;3.70;99.90;;;3.58;96.35;101411.41;4938596;29;20189;-77
2022/11/28 03:18:12;;;;;;;21.88;11.25;;;3.70;99.90;;;3.57;96.66;101404.34;4937875;29;20216;-76
2022/11/28 03:20:52;;;;;;;19.63;9.73;;;3.60;99.90;;;3.56;96.99;101397.31;4952859;28;20240;-77
2022/11/28 03:23:32;;;;;;;18.90;12.73;;;3.60;99.90;;;3.52;97.21;101395.91;4938481;29;20204;-76
2022/11/28 03:26:08;;;;;;;15.52;10.00;;;3.70;99.90;;;3.57;97.19;101395.47;4938339;29;20540;-77
2022/11/28 03:29:13;;;;;;;17.52;11.77;;;3.70;99.90;;;3.56;97.55;101391.97;4937872;29;20228;-76
2022/11/28 03:31:50;;;;;;;17.83;12.57;;;3.60;99.90;;;3.60;97.16;101397.84;4938007;29;20169;-76
2022/11/28 03:34:24;;;;;;;29.73;11.02;;;3.70;99.90;;;3.68;96.60;101385.44;4938484;29;20180;-77
2022/11/28 03:37:02;;;;;;;30.02;10.45;;;3.70;99.90;;;3.66;96.92;101387.44;4939502;29;20192;-77
2022/11/28 03:39:39;;;;;;;20.20;11.15;;;3.70;99.90;;;3.68;96.61;101377.41;4940496;29;20209;-77
2022/11/28 03:42:14;;;;;;;20.35;12.27;;;3.70;99.90;;;3.66;96.90;101376.72;4942221;29;20196;-78
2022/11/28 03:44:49;;;;;;;22.65;11.10;;;3.80;99.90;;;3.66;96.71;101371.38;4939998;29;20186;-77
2022/11/28 03:47:19;;;;;;;14.85;9.80;;;3.70;99.90;;;3.65;96.84;101380.38;4937566;29;20216;-78
2022/11/28 03:49:54;;;;;;;20.98;12.40;;;3.70;99.90;;;3.71;96.69;101377.13;4939297;29;20235;-78
2022/11/28 03:52:32;;;;;;;25.85;10.98;;;3.80;99.90;;;3.75;96.39;101375.00;4939816;29;20173;-77
2022/11/28 03:55:09;;;;;;;19.88;12.45;;;3.80;99.90;;;3.72;96.18;101369.94;4939058;29;20220;-78
2022/11/28 03:57:47;;;;;;;13.75;9.88;;;3.80;99.90;;;3.68;96.29;101369.38;4939057;29;20197;-77
2022/11/28 04:00:17;;;;;;;15.20;10.23;;;3.80;99.90;;;3.61;96.68;101367.44;4943842;29;20215;-77
2022/11/28 04:03:01;;;;;;;23.45;13.85;;;3.70;99.90;;;3.59;96.89;101372.94;4944208;29;20173;-77
2022/11/28 04:05:41;;;;;;;24.55;13.38;;;3.70;99.90;;;3.55;96.95;101371.53;4945212;29;20200;-77
2022/11/28 04:08:18;;;;;;;22.50;11.95;;;3.70;99.90;;;3.58;96.95;101373.09;4940708;29;20228;-77
2022/11/28 04:11:02;;;;;;;24.63;13.45;;;3.60;99.90;;;3.49;97.39;101369.44;4935161;29;20312;-78
2022/11/28 04:13:38;;;;;;;22.60;11.50;;;3.60;99.90;;;3.61;96.99;101362.09;4933716;29;20188;-78
2022/11/28 04:16:19;;;;;;;18.95;9.75;;;3.60;99.90;;;3.52;97.20;101361.13;4944100;29;20184;-78
2022/11/28 04:19:00;;;;;;;23.77;12.90;;;3.60;99.90;;;3.47;97.35;101350.88;4940680;29;20183;-78
2022/11/28 04:21:35;;;;;;;23.23;11.18;;;3.60;99.90;;;3.50;97.35;101353.25;4945655;29;20208;-78
2022/11/28 04:24:13;;;;;;;20.13;12.48;;;3.60;99.90;;;3.48;97.40;101352.56;4941253;29;20237;-78
2022/11/28 04:26:51;;;;;;;20.92;11.05;;;3.60;99.90;;;3.43;97.80;101354.81;4942568;29;20192;-78
2022/11/28 04:29:24;;;;;;;21.60;12.52;;;3.50;99.90;;;3.49;97.44;101353.38;4942390;29;20232;-77
2022/11/28 04:31:59;;;;;;;15.82;9.73;;;3.60;99.90;;;3.45;97.41;101351.97;4941975;29;20274;-78
2022/11/28 04:34:33;;;;;;;19.17;12.30;;;3.60;99.90;;;3.45;97.58;101357.34;4941448;29;20173;-78
2022/11/28 04:37:06;;;;;;;23.48;12.75;;;3.60;99.90;;;3.45;98.09;101349.31;4940382;29;20575;-78
2022/11/28 04:39:43;;;;;;;18.60;10.90;;;3.50;99.90;;;3.49;97.26;101345.34;4936882;29;20220;-78
2022/11/28 04:42:18;;;;;;;26.45;12.82;;;3.50;99.90;;;3.42;97.49;101346.94;4939247;29;20176;-78
2022/11/28 04:44:58;;;;;;;22.38;12.85;;;3.50;99.90;;;3.44;97.48;101350.28;4939511;29;20191;-78
2022/11/28 04:47:28;;;;;;;23.92;12.40;;;3.50;99.90;;;3.45;97.98;101335.94;4941542;29;20196;-79
2022/11/28 04:49:58;;;;;;;21.65;12.82;;;3.50;99.90;;;3.45;97.66;101341.28;4954398;29;20217;-78
2022/11/28 04:52:37;;;;;;;20.20;11.43;;;3.50;99.90;;;3.49;97.39;101331.97;4942808;29;20213;-79
2022/11/28 04:55:21;;;;;;;21.65;10.82;;;3.50;99.90;;;3.55;97.06;101331.41;4941502;29;20204;-78
2022/11/28 04:58:00;;;;;;;21.10;13.18;;;3.60;99.90;;;3.55;96.56;101328.72;4941241;29;20219;-78
2022/11/28 05:00:32;;;;;;;17.77;10.50;;;3.60;99.90;;;3.64;96.22;101341.22;4943649;29;20243;-78
2022/11/28 05:03:04;;;;;;;17.77;12.45;;;3.60;99.90;;;3.66;95.94;101341.09;4944898;29;20260;-78
2022/11/28 05:05:45;;;;;;;16.85;10.50;;;3.70;99.90;;;3.74;95.74;101336.69;4938192;29;20193;-79
2022/11/28 05:08:15;;;;;;;21.10;10.60;;;3.70;99.90;;;3.77;95.03;101341.75;4952328;29;20203;-79
2022/11/28 05:10:47;;;;;;;20.15;10.88;;;3.80;99.90;;;3.81;94.74;101337.78;4937196;29;20209;-78
2022/11/28 05:13:17;;;;;;;18.27;12.27;;;3.80;99.90;;;3.84;94.41;101337.47;4955885;28;20173;-78
2022/11/28 05:15:46;;;;;;;24.90;11.25;;;3.80;99.90;;;3.92;94.14;101337.56;4959308;29;20189;-79
2022/11/28 05:18:16;;;;;;;19.60;10.80;;;3.90;99.90;;;3.94;93.71;101337.44;4960079;28;20200;-78
2022/11/28 05:20:45;;;;;;;23.08;11.18;;;3.90;99.90;;;3.95;93.32;101331.09;4960126;28;20189;-78
2022/11/28 05:23:15;;;;;;;17.30;10.25;;;4.00;99.90;;;3.97;92.88;101337.13;4959995;28;20165;-78
2022/11/28 05:25:45;;;;;;;24.67;12.43;;;4.00;99.90;;;3.94;93.16;101332.91;4941118;29;20196;-80
2022/11/28 05:28:14;;;;;;;20.95;12.35;;;4.00;99.90;;;3.97;92.62;101330.94;4937857;29;20282;-79
2022/11/28 05:30:44;;;;;;;16.88;9.50;;;4.00;99.90;;;3.99;92.80;101327.13;4941091;29;20216;-79
2022/11/28 05:33:13;;;;;;;13.63;9.10;;;4.00;99.90;;;4.06;92.17;101332.72;4938240;29;20200;-78
2022/11/28 05:35:44;;;;;;;15.20;10.40;;;4.00;99.90;;;3.98;92.16;101338.81;4938448;29;20240;-79
2022/11/28 05:38:14;;;;;;;26.65;13.82;;;4.00;99.90;;;4.06;91.71;101324.69;4939559;29;20264;-80
2022/11/28 05:40:43;;;;;;;17.83;11.15;;;4.00;99.90;;;4.04;92.06;101324.84;4940598;29;20209;-80
2022/11/28 05:43:13;;;;;;;16.80;11.25;;;4.00;99.90;;;3.98;91.56;101322.75;4934130;29;20236;-79
2022/11/28 05:45:46;;;;;;;18.63;11.20;;;4.00;99.90;;;4.01;91.36;101322.47;4933937;29;20197;-79
2022/11/28 05:48:16;;;;;;;16.90;10.30;;;4.00;99.90;;;4.01;91.17;101313.59;4943074;29;20211;-79
2022/11/28 05:50:45;;;;;;;20.50;10.73;;;4.00;99.90;;;4.01;91.52;101310.91;4942310;29;20217;-79
2022/11/28 05:53:14;;;;;;;15.48;8.95;;;4.00;99.90;;;4.04;90.80;101310.59;4942340;29;20189;-79
2022/11/28 05:55:47;;;;;;;22.45;12.05;;;4.00;99.90;;;3.94;91.33;101303.47;4944291;29;20196;-79
2022/11/28 05:58:18;;;;;;;18.75;10.73;;;4.00;99.90;;;3.94;91.21;101300.78;4943521;29;20203;-79
2022/11/28 06:00:47;;;;;;;14.00;9.38;;;4.00;99.90;;;4.01;90.77;101294.84;4941230;29;20224;-79
2022/11/28 06:03:16;;;;;;;21.05;10.77;;;4.00;99.90;;;4.02;90.77;101297.34;4942836;29;20195;-80
2022/11/28 06:05:45;;;;;;;18.38;11.13;;;4.00;99.90;;;4.00;90.95;101296.69;4941939;29;20255;-79
2022/11/28 06:08:15;;;;;;;23.73;12.00;;;4.00;99.90;;;4.10;90.80;101300.13;4943177;29;20185;-79
2022/11/28 06:10:44;;;;;;;19.67;12.15;;;4.10;99.90;;;4.07;89.97;101296.91;4942860;29;20232;-79
2022/11/28 06:13:14;;;;;;;21.50;12.70;;;4.10;99.90;;;4.02;90.37;101292.00;4943626;29;20730;-80
2022/11/28 06:15:45;;;;;;;23.42;10.07;;;4.10;99.90;;;4.02;90.12;101286.63;4942713;29;20189;-79
2022/11/28 06:18:14;;;;;;;24.90;12.20;;;4.10;99.90;;;3.98;90.54;101284.41;4941650;29;20197;-80
2022/11/28 06:20:43;;;;;;;24.00;11.07;;;4.00;99.90;;;3.98;90.79;101284.41;4942450;29;20622;-79
2022/11/28 06:23:13;;;;;;;20.60;11.13;;;4.00;99.90;;;3.88;91.17;101285.31;4941272;29;20220;-79
2022/11/28 06:25:42;;;;;;;16.13;11.35;;;4.00;99.90;;;3.81;91.35;101273.53;4941791;29;20192;-79
2022/11/28 06:28:12;;;;;;;18.88;12.40;;;3.90;99.90;;;3.77;92.01;101260.59;4941485;29;20192;-78
2022/11/28 06:30:45;;;;;;;15.27;11.27;;;3.80;99.90;;;3.76;92.19;101274.97;4941536;29;20236;-77
2022/11/28 06:33:14;;;;;;;25.67;12.30;;;3.80;99.90;;;3.69;92.74;101274.72;4941326;29;20177;-78
2022/11/28 06:35:43;;;;;;;21.30;12.07;;;3.70;99.90;;;3.70;93.21;101276.41;4940040;29;20188;-79
2022/11/28 06:38:13;;;;;;;20.25;11.45;;;3.70;99.90;;;3.71;93.29;101275.41;4941846;29;20268;-77
2022/11/28 06:40:42;;;;;;;21.67;11.13;;;3.70;99.90;;;3.67;93.51;101270.50;4936760;29;20661;-78
2022/11/28 06:43:11;;;;;;;20.35;13.50;;;3.70;99.90;;;3.64;93.76;101274.31;4938222;29;20201;-77
2022/11/28 06:45:41;;;;;;;25.70;11.18;;;3.70;99.90;;;3.64;93.95;101266.28;4938550;29;20444;-77
2022/11/28 06:48:11;;;;;;;26.20;11.75;;;3.70;99.90;;;3.61;93.91;101274.63;4939811;29;20664;-78
2022/11/28 06:50:41;;;;;;;33.00;15.82;;;3.70;99.90;;;3.61;94.24;101279.13;4941045;29;20251;-78
2022/11/28 06:53:10;;;;;;;24.05;13.13;;;3.60;99.90;;;3.54;94.79;101284.22;4939135;29;20209;-77
2022/11/28 06:55:40;;;;;;;24.15;11.88;;;3.60;99.90;;;3.56;94.43;101276.88;4938927;29;20573;-77
2022/11/28 06:58:09;;;;;;;25.48;15.55;;;3.60;99.90;;;3.48;94.67;101283.00;4941527;29;20209;-78
2022/11/28 07:00:39;;;;;;;22.05;13.95;;;3.60;99.90;;;3.50;95.01;101275.63;4946299;29;20209;-77
2022/11/28 07:03:11;;;;;;;28.17;14.70;;;3.60;99.90;;;3.60;95.28;101270.25;4946807;29;20185;-78
2022/11/28 07:05:40;;;;;;;22.00;14.68;;;3.60;99.90;;;3.55;95.57;101275.19;4943096;29;20558;-76
2022/11/28 07:08:10;;;;;;;18.42;11.63;;;3.60;99.90;;;3.52;95.06;101278.19;4939247;29;20196;-77
2022/11/28 07:10:39;;;;;;;25.60;15.02;;;3.60;99.90;;;3.45;95.31;101269.88;4940015;29;20239;-77
2022/11/28 07:13:09;;;;;;;30.65;13.20;;;3.60;99.90;;;3.50;95.36;101274.78;4939944;29;20196;-76
2022/11/28 07:15:38;;;;;;;23.58;11.95;;;3.50;99.90;;;3.49;95.61;101270.44;4939310;29;20279;-77
2022/11/28 07:18:07;;;;;;;18.13;13.50;;;3.60;99.90;;;3.52;95.16;101267.47;4939895;29;20300;-77
2022/11/28 07:20:38;;;;;;;27.60;14.65;;;3.50;99.90;;;3.51;95.59;101268.47;4931044;29;20213;-78
2022/11/28 07:23:11;;;;;;;27.40;14.45;;;3.60;99.90;;;3.48;95.40;101271.44;4921831;29;20226;-77
2022/11/28 07:25:41;;;;;;;25.10;12.98;;;3.60;99.90;;;3.47;95.64;101270.59;4921580;29;20177;-77
2022/11/28 07:28:10;;;;;;;31.13;14.75;;;3.50;99.90;;;3.53;95.29;101269.16;4923348;29;20289;-79
2022/11/28 07:30:40;;;;;;;28.63;17.38;;;3.50;99.90;;;3.51;95.10;101276.50;4921039;29;20217;-78
2022/11/28 07:33:09;;;;;;;27.65;15.35;;;3.60;99.90;;;3.53;95.37;101274.53;4918963;29;20272;-78
2022/11/28 07:35:39;;;;;;;21.13;11.40;;;3.60;99.90;;;3.63;95.23;101272.63;4919877;29;20225;-78
2022/11/28 07:38:09;;;;;;;26.75;15.75;;;3.60;99.90;;;3.61;95.14;101274.63;4921446;29;20193;-78
2022/11/28 07:40:38;;;;;;;24.27;13.00;;;3.60;99.90;;;3.64;95.05;101271.63;4919894;29;20244;-77
2022/11/28 07:43:11;;;;;;;26.15;14.82;;;3.60;99.90;;;3.60;95.19;101270.25;4920525;29;20201;-77
2022/11/28 07:45:40;;;;;;;39.10;17.08;;;3.60;99.90;;;3.63;95.33;101269.94;4936683;29;20699;-78
2022/11/28 07:48:29;;;;;;;28.05;15.68;;;3.60;99.90;;;3.69;95.22;101269.34;4939813;29;20287;-79
2022/11/28 07:51:00;;;;;;;29.05;13.75;;;3.70;99.90;;;3.81;94.55;101262.81;4940200;29;20217;-77
2022/11/28 07:53:29;;;;;;;23.40;13.88;;;3.80;99.90;;;3.84;94.23;101267.88;4942792;29;20264;-78
2022/11/28 07:56:05;;;;;;;20.63;13.02;;;3.80;99.90;;;3.84;94.18;101269.69;4939086;29;20204;-79
2022/11/28 07:58:37;;;;;;;29.73;15.50;;;3.80;99.90;;;3.81;94.00;101268.19;4939146;29;20204;-79
2022/11/28 08:01:10;;;;;;;29.13;14.05;;;3.80;99.90;;;3.86;93.76;101259.69;4937450;29;20232;-78
2022/11/28 08:03:40;;;;;;;23.40;13.15;;;3.80;99.90;;;3.86;93.53;101270.41;4917158;29;20276;-78
2022/11/28 08:06:13;;;;;;;20.13;12.70;;;3.80;99.90;;;3.82;93.45;101269.88;4921505;29;20204;-78
2022/11/28 08:08:43;;;;;;;36.88;15.30;;;3.80;99.90;;;3.87;93.14;101272.09;4921124;29;20242;-78
2022/11/28 08:11:13;;;;;;;22.75;12.75;;;3.80;99.90;;;3.94;93.36;101268.66;4932163;29;20268;-77
2022/11/28 08:13:42;;;;;;;32.17;12.10;;;3.90;99.90;;;3.92;92.97;101261.78;4939106;29;20181;-77
2022/11/28 08:16:16;;;;;;;36.78;14.63;;;3.90;99.90;;;4.03;92.56;101258.03;4937755;29;20192;-77
2022/11/28 08:18:47;;;;;;;26.02;13.68;;;4.00;99.90;;;3.95;91.81;101253.44;4937364;29;20264;-78
2022/11/28 08:21:23;;;;;;;25.40;12.88;;;4.00;99.90;;;4.01;92.28;101254.69;4938920;29;20234;-78
2022/11/28 08:23:56;;;;;;;20.75;12.57;;;4.00;99.90;;;4.00;91.42;101239.59;4938758;29;20177;-78
2022/11/28 08:26:28;;;;;;;23.58;12.98;;;4.00;99.90;;;4.05;91.62;101243.50;4940957;29;20197;-78
2022/11/28 08:29:00;;;;;;;23.73;13.07;;;4.00;99.90;;;3.96;91.73;101238.22;4941624;29;20177;-78
2022/11/28 08:31:35;;;;;;;25.75;13.68;;;4.00;99.90;;;3.97;91.89;101234.56;4938145;29;20181;-77
2022/11/28 08:34:08;;;;;;;30.92;14.32;;;4.00;99.90;;;4.07;91.08;101235.28;4938044;29;20267;-78
2022/11/28 08:36:42;;;;;;;27.20;14.02;;;4.00;99.90;;;4.24;91.13;101238.00;4943079;29;20177;-79
2022/11/28 08:39:12;;;;;;;17.48;11.90;;;4.10;99.90;;;4.24;90.15;101234.47;4940656;29;20283;-77
2022/11/28 08:41:58;;;;;;;26.63;12.75;;;4.20;99.90;;;4.34;89.53;101230.75;4937115;29;20200;-77
2022/11/28 08:44:29;;;;;;;19.67;11.75;;;4.30;99.90;;;4.43;89.10;101233.47;4933070;29;20205;-77
2022/11/28 08:46:59;;;;;;;21.77;12.32;;;4.40;99.90;;;4.40;89.14;101225.75;4933012;29;20189;-77
2022/11/28 08:49:30;;;;;;;22.88;11.73;;;4.40;99.90;;;4.33;89.24;101242.44;4936532;29;20224;-77
2022/11/28 08:52:02;;;;;;;23.20;12.70;;;4.40;99.90;;;4.36;89.80;101235.91;4936444;29;20603;-77
2022/11/28 08:54:32;;;;;;;27.60;14.18;;;4.40;99.90;;;4.46;89.06;101236.69;4936412;29;20169;-77
2022/11/28 08:57:02;;;;;;;27.02;14.60;;;4.40;99.90;;;4.41;88.27;101238.97;4937162;29;20184;-78
2022/11/28 08:59:32;;;;;;;25.13;13.63;;;4.40;99.90;;;4.47;88.95;101249.09;4936147;29;20622;-77
2022/11/28 09:02:02;;;;;;;23.40;14.40;;;4.40;99.90;;;4.55;88.40;101249.16;4936028;29;20618;-77
2022/11/28 09:04:32;;;;;;;16.23;11.93;;;4.50;99.90;;;4.60;87.80;101254.91;4936839;29;20271;-77
2022/11/28 09:07:06;;;;;;;22.73;14.95;;;4.50;99.90;;;4.81;87.52;101258.09;4936126;29;20215;-76
2022/11/28 09:09:36;;;;;;;27.08;14.15;;;4.70;99.90;;;4.73;86.80;101257.19;4936013;29;20208;-77
2022/11/28 09:12:07;;;;;;;20.45;11.90;;;4.70;99.90;;;4.79;86.71;101243.97;4936378;29;20192;-76
2022/11/28 09:14:38;;;;;;;21.80;12.10;;;4.70;99.90;;;4.90;86.80;101250.94;4936273;29;20228;-76
2022/11/28 09:17:08;;;;;;;27.75;14.80;;;4.80;99.90;;;4.84;85.72;101256.09;4939490;29;20656;-76
2022/11/28 09:19:38;;;;;;;20.55;12.38;;;4.80;99.90;;;4.86;85.84;101246.06;4939100;29;20317;-78
2022/11/28 09:22:10;;;;;;;19.88;12.20;;;4.80;99.90;;;4.92;85.92;101254.31;4939786;29;20188;-78
2022/11/28 09:24:40;;;;;;;21.42;13.63;;;4.80;99.90;;;4.93;85.16;101245.28;4940029;29;20188;-76
2022/11/28 09:27:09;;;;;;;20.40;11.07;;;4.90;99.90;;;4.91;85.03;101246.41;4927339;29;20202;-77
2022/11/28 09:29:39;;;;;;;26.08;13.32;;;4.90;99.90;;;5.04;85.35;101244.16;4920855;29;20236;-77
2022/11/28 09:32:09;;;;;;;28.42;14.35;;;4.90;99.90;;;5.01;84.50;101247.16;4926940;29;20695;-77
2022/11/28 09:34:38;;;;;;;24.10;13.52;;;5.00;99.90;;;5.06;84.39;101244.84;4939934;29;20196;-77
2022/11/28 09:37:09;;;;;;;17.65;11.45;;;5.00;99.90;;;4.96;84.31;101249.47;4939823;29;20669;-77
2022/11/28 09:39:39;;;;;;;25.65;14.98;;;4.90;99.90;;;4.93;84.74;101249.81;4939774;29;20217;-77
2022/11/28 09:42:40;;;;;;;19.17;11.25;;;4.90;99.90;;;4.91;85.37;101247.28;4939432;29;20189;-77
2022/11/28 09:45:17;;;;;;;20.73;12.55;;;4.90;99.90;;;5.08;84.55;101235.63;4939380;29;20287;-77
2022/11/28 09:47:54;;;;;;;24.35;11.35;;;5.00;99.90;;;5.12;84.08;101241.53;4939336;29;20557;-76
2022/11/28 09:50:27;;;;;;;34.35;13.13;;;5.00;99.90;;;5.12;83.85;101234.34;4939597;29;20550;-76
2022/11/28 09:53:10;;;;;;;22.30;12.50;;;5.10;99.90;;;5.16;83.59;101238.38;4938518;29;20553;-76
2022/11/28 09:55:46;;;;;;;23.85;12.20;;;5.10;99.90;;;5.18;83.63;101228.31;4939240;29;20189;-77
2022/11/28 09:58:24;;;;;;;20.73;13.15;;;5.10;99.90;;;5.22;83.08;101223.50;4939237;29;20177;-77
2022/11/28 10:01:05;;;;;;;33.75;15.27;;;5.20;99.90;;;5.21;83.86;101227.19;4938503;29;20262;-77
2022/11/28 10:03:45;;;;;;;23.73;14.10;;;5.20;99.90;;;5.38;82.57;101214.66;4939199;29;20180;-77
2022/11/28 10:06:24;;;;;;;27.33;12.45;;;5.20;99.90;;;5.41;82.64;101227.78;4953766;29;20201;-78
2022/11/28 10:09:18;;;;;;;28.92;15.07;;;5.30;99.90;;;5.45;82.63;101219.25;4938750;29;20173;-77
2022/11/28 10:12:06;;;;;;;22.27;13.65;;;5.40;99.90;;;5.46;81.88;101220.09;4939489;29;20193;-78
2022/11/28 10:15:03;;;;;;;25.63;14.20;;;5.40;99.90;;;5.67;81.48;101224.03;4943321;29;20181;-78
2022/11/28 10:17:55;;;;;;;34.03;14.27;;;5.50;99.90;;;5.39;81.21;101225.25;4938892;29;20693;-78
2022/11/28 10:20:29;;;;;;;27.63;13.55;;;5.50;99.90;;;5.48;81.35;101234.16;4938822;29;20610;-76
2022/11/28 10:23:04;;;;;;;20.90;12.48;;;5.40;99.90;;;5.45;81.55;101232.66;4954453;28;20185;-77
2022/11/28 10:25:42;;;;;;;34.58;14.07;;;5.40;99.90;;;5.57;81.21;101231.38;4937796;29;20211;-77
2022/11/28 10:28:17;;;;;;;28.30;15.32;;;5.50;99.90;;;5.59;81.02;101224.00;4953363;28;20215;-78
2022/11/28 10:30:54;;;;;;;23.00;12.68;;;5.50;99.90;;;5.75;80.91;101225.06;4938852;29;20204;-77
2022/11/28 10:33:29;;;;;;;26.60;14.65;;;5.60;99.90;;;5.75;80.42;101215.16;4920279;29;20178;-77
2022/11/28 10:36:02;;;;;;;29.50;15.60;;;5.60;99.90;;;5.68;80.13;101214.97;4927346;29;20199;-77
2022/11/28 10:38:35;;;;;;;24.63;13.88;;;5.60;99.90;;;5.85;79.52;101207.81;4938599;29;20200;-78
2022/11/28 10:41:17;;;;;;;29.15;13.80;;;5.70;99.90;;;5.83;79.69;101206.28;4938306;29;20692;-77